• Join FlightAware (Why Join?)
  • Login
  • US Flag 
11:55PM EDT


 

Airport Tracker/Info


-or-


 

Live Flight TrackerFlight Track Log ✈ AVN20 ✈ 10-Nov-2013 ✈ NVSS / SON - YBBN / BNE

Flight Track Log - Related Links

Times and Time Zones

All times are in EST time to prevent confusion due to time zone crossing. See the AVN20 flight status page for this flight to view local times or setup timezone preferences in your user account.

Time Position Orientation Groundspeed Altitude Reporting Facility
EST Latitude Longitude Course Direction KTS MPH feet Rate Location/Type
01:55AM -15.9321 166.8392 221° Southwest  Level FlightAware Approximate
01:56AM -15.9859 166.7912 221° Southwest  Level FlightAware Approximate
01:57AM -16.0397 166.7431 221° Southwest  Level FlightAware Approximate
01:58AM -16.0934 166.6950 221° Southwest  Level FlightAware Approximate
01:59AM -16.1472 166.6469 221° Southwest  Level FlightAware Approximate
02:00AM -16.2010 166.5987 221° Southwest  Level FlightAware Approximate
02:01AM -16.2547 166.5506 221° Southwest  Level FlightAware Approximate
02:02AM -16.3085 166.5023 221° Southwest  Level FlightAware Approximate
02:03AM -16.3622 166.4541 221° Southwest  Level FlightAware Approximate
02:04AM -16.4159 166.4059 221° Southwest  Level FlightAware Approximate
02:05AM -16.4696 166.3576 221° Southwest  Level FlightAware Approximate
02:06AM -16.5233 166.3093 221° Southwest  Level FlightAware Approximate
02:07AM -16.5770 166.2610 221° Southwest  Level FlightAware Approximate
02:08AM -16.6307 166.2126 221° Southwest  Level FlightAware Approximate
02:09AM -16.6843 166.1642 221° Southwest  Level FlightAware Approximate
02:10AM -16.7380 166.1158 221° Southwest  Level FlightAware Approximate
02:11AM -16.7916 166.0674 221° Southwest  Level FlightAware Approximate
02:12AM -16.8452 166.0189 221° Southwest  Level FlightAware Approximate
02:13AM -16.8989 165.9704 221° Southwest  Level FlightAware Approximate
02:14AM -16.9525 165.9219 221° Southwest  Level FlightAware Approximate
02:15AM -17.0061 165.8733 221° Southwest  Level FlightAware Approximate
02:16AM -17.0597 165.8247 221° Southwest  Level FlightAware Approximate
02:17AM -17.1132 165.7761 221° Southwest  Level FlightAware Approximate
02:18AM -17.1668 165.7275 221° Southwest  Level FlightAware Approximate
02:19AM -17.2203 165.6788 221° Southwest  Level FlightAware Approximate
02:20AM -17.2739 165.6301 221° Southwest  Level FlightAware Approximate
02:21AM -17.3274 165.5814 221° Southwest  Level FlightAware Approximate
02:22AM -17.3809 165.5327 221° Southwest  Level FlightAware Approximate
02:23AM -17.4344 165.4839 221° Southwest  Level FlightAware Approximate
02:24AM -17.4879 165.4351 221° Southwest  Level FlightAware Approximate
02:25AM -17.5414 165.3863 221° Southwest  Level FlightAware Approximate
02:26AM -17.5948 165.3374 221° Southwest  Level FlightAware Approximate
02:27AM -17.6483 165.2885 221° Southwest  Level FlightAware Approximate
02:28AM -17.7017 165.2396 221° Southwest  Level FlightAware Approximate
02:29AM -17.7551 165.1906 221° Southwest  Level FlightAware Approximate
02:30AM -17.8086 165.1417 221° Southwest  Level FlightAware Approximate
02:31AM -17.8620 165.0927 221° Southwest  Level FlightAware Approximate
02:32AM -17.9154 165.0436 221° Southwest  Level FlightAware Approximate
02:33AM -17.9687 164.9945 221° Southwest  Level FlightAware Approximate
02:34AM -18.0221 164.9454 221° Southwest  Level FlightAware Approximate
02:35AM -18.0755 164.8963 221° Southwest  Level FlightAware Approximate
02:36AM -18.1288 164.8472 221° Southwest  Level FlightAware Approximate
02:37AM -18.1821 164.7980 221° Southwest  Level FlightAware Approximate
02:38AM -18.2355 164.7487 221° Southwest  Level FlightAware Approximate
02:38AM -19.5494 163.5238 226° Southwest 30,000  Level Aus ATC (Calculated)
02:38AM -19.5494 163.5238 226° Southwest 30,000 60 Level Aus ATC (Calculated)
02:40AM -19.6488 163.4298 222° Southwest  Level FlightAware Approximate
02:41AM -19.7041 163.3775 222° Southwest  Level FlightAware Approximate
02:41AM -19.8075 163.2795 226° Southwest 30,000  Level Aus ATC (Calculated)
02:43AM -19.9069 163.1852 222° Southwest  Level FlightAware Approximate
02:43AM -19.9284 163.1647 226° Southwest 30,000  Level Aus ATC (Calculated)
02:44AM -19.9621 163.1327 222° Southwest  Level FlightAware Approximate
02:45AM -20.0388 163.0597 222° Southwest  Level FlightAware Approximate
02:46AM -20.0939 163.0072 222° Southwest  Level FlightAware Approximate
02:46AM -20.1625 162.9418 226° Southwest 30,000  Level Aus ATC (Calculated)
02:47AM -20.2107 162.8820 236° Southwest  Level Estimated
02:47AM -20.2721 162.8371 226° Southwest 30,000  Level Aus ATC (Calculated)
02:47AM -20.3252 162.7863 226° Southwest 30,000 60 Level Aus ATC (Calculated)
02:49AM -20.3831 162.7185 228° Southwest  Level FlightAware Approximate
02:50AM -20.4320 162.6612 228° Southwest  Level FlightAware Approximate
02:51AM -20.4809 162.6039 228° Southwest  Level FlightAware Approximate
02:52AM -20.5297 162.5465 228° Southwest  Level FlightAware Approximate
02:53AM -20.5786 162.4891 228° Southwest  Level FlightAware Approximate
02:54AM -20.6274 162.4316 228° Southwest  Level FlightAware Approximate
02:55AM -20.6762 162.3741 228° Southwest  Level FlightAware Approximate
02:56AM -20.7250 162.3166 228° Southwest  Level FlightAware Approximate
02:57AM -20.7738 162.2590 228° Southwest  Level FlightAware Approximate
02:58AM -20.8226 162.2014 228° Southwest  Level FlightAware Approximate
02:59AM -20.8713 162.1438 228° Southwest  Level FlightAware Approximate
03:00AM -20.9200 162.0861 228° Southwest  Level FlightAware Approximate
03:01AM -20.9687 162.0284 228° Southwest  Level FlightAware Approximate
03:02AM -21.0174 161.9707 228° Southwest  Level FlightAware Approximate
03:03AM -21.0661 161.9129 228° Southwest  Level FlightAware Approximate
03:04AM -21.1147 161.8551 228° Southwest  Level FlightAware Approximate
03:05AM -21.1633 161.7972 228° Southwest  Level FlightAware Approximate
03:06AM -21.2119 161.7393 228° Southwest  Level FlightAware Approximate
03:07AM -21.2605 161.6814 228° Southwest  Level FlightAware Approximate
03:08AM -21.3091 161.6234 228° Southwest  Level FlightAware Approximate
03:09AM -21.3576 161.5654 228° Southwest  Level FlightAware Approximate
03:10AM -21.4061 161.5073 228° Southwest  Level FlightAware Approximate
03:11AM -21.4546 161.4492 228° Southwest  Level FlightAware Approximate
03:12AM -21.5031 161.3911 228° Southwest  Level FlightAware Approximate
03:13AM -21.5516 161.3329 228° Southwest  Level FlightAware Approximate
03:14AM -21.6000 161.2747 228° Southwest  Level FlightAware Approximate
03:15AM -21.6484 161.2165 228° Southwest  Level FlightAware Approximate
03:16AM -21.6968 161.1582 228° Southwest  Level FlightAware Approximate
03:17AM -21.7452 161.0998 228° Southwest  Level FlightAware Approximate
03:18AM -21.7936 161.0415 228° Southwest  Level FlightAware Approximate
03:19AM -21.8419 160.9831 228° Southwest  Level FlightAware Approximate
03:20AM -21.8902 160.9246 228° Southwest  Level FlightAware Approximate
03:21AM -21.9385 160.8661 228° Southwest  Level FlightAware Approximate
03:22AM -21.9868 160.8076 228° Southwest  Level FlightAware Approximate
03:23AM -22.0351 160.7491 228° Southwest  Level FlightAware Approximate
03:24AM -22.0833 160.6905 228° Southwest  Level FlightAware Approximate
03:25AM -22.1315 160.6318 228° Southwest  Level FlightAware Approximate
03:25AM -23.2256 159.9309 233° Southwest 30,000  Level Aus ATC (Calculated)
03:26AM -22.1797 160.5731 228° Southwest  Level FlightAware Approximate
03:27AM -23.2791 159.8511 234° Southwest  Level FlightAware Approximate
03:28AM -23.3255 159.7817 234° Southwest  Level FlightAware Approximate
03:29AM -23.3719 159.7122 234° Southwest  Level FlightAware Approximate
03:30AM -23.4183 159.6426 234° Southwest  Level FlightAware Approximate
03:31AM -23.4646 159.5730 234° Southwest  Level FlightAware Approximate
03:32AM -23.5109 159.5034 234° Southwest  Level FlightAware Approximate
03:32AM -23.7019 159.4073 236° Southwest 30,000  Level Aus ATC (Calculated)
03:34AM -23.7885 159.2684 236° Southwest  Level FlightAware Approximate
03:35AM -23.8328 159.1971 236° Southwest  Level FlightAware Approximate
03:36AM -23.8771 159.1257 236° Southwest  Level FlightAware Approximate
03:37AM -23.9214 159.0543 236° Southwest  Level FlightAware Approximate
03:38AM -23.9657 158.9828 236° Southwest  Level FlightAware Approximate
03:39AM -24.0099 158.9113 224° Southwest  Level Estimated
03:40AM -24.0604 158.8450 230° Southwest  Level FlightAware Approximate
03:41AM -24.1109 158.7785 230° Southwest  Level FlightAware Approximate
03:42AM -24.1613 158.7121 230° Southwest  Level FlightAware Approximate
03:43AM -24.2118 158.6455 230° Southwest  Level FlightAware Approximate
03:43AM -24.4906 158.1269 237° Southwest 30,000  Level Aus ATC (Calculated)
03:44AM -24.5885 157.9657 237° Southwest 30,000 2,100 Level Aus ATC (Calculated)
03:45AM -24.5709 158.0236 229° Southwest  Level FlightAware Approximate
03:45AM -24.6210 157.9119 237° Southwest 30,000  Level Aus ATC (Calculated)
03:46AM -25.0390 157.2016 229° Southwest 408 470 36,000 3,780 Climbing Aus ATC (RADAR)
03:47AM -25.0883 157.1236 235° Southwest 406 467 36,000  Level Aus ATC (RADAR)
03:47AM -25.1267 157.0631 235° Southwest 406 467 36,000  Level Aus ATC (RADAR)
03:48AM -25.1772 156.9742 238° Southwest 406 467 36,000  Level Aus ATC (RADAR)
03:48AM -25.2027 156.9293 238° Southwest 407 468 36,000  Level Aus ATC (RADAR)
03:49AM -25.2416 156.8684 235° Southwest 407 468 36,000  Level Aus ATC (RADAR)
03:50AM -25.3040 156.7745 234° Southwest 407 468 36,000  Level Aus ATC (RADAR)
03:50AM -25.3302 156.7299 237° Southwest 407 468 36,000  Level Aus ATC (RADAR)
03:51AM -25.3661 156.6664 238° Southwest 409 471 36,000  Level Aus ATC (RADAR)
03:52AM -25.4141 156.5858 237° Southwest 412 474 36,000  Level Aus ATC (RADAR)
03:52AM -25.4512 156.5229 237° Southwest 412 474 36,000  Level Aus ATC (RADAR)
03:53AM -25.4882 156.4597 237° Southwest 414 476 36,000  Level Aus ATC (RADAR)
03:53AM -25.5190 156.4046 238° Southwest 414 476 36,000  Level Aus ATC (RADAR)
03:54AM -25.5564 156.3419 237° Southwest 413 475 36,000  Level Aus ATC (RADAR)
03:55AM -25.6181 156.2322 238° Southwest 414 476 36,000  Level Aus ATC (RADAR)
03:55AM -25.6445 156.1872 237° Southwest 413 475 36,000  Level Aus ATC (RADAR)
03:56AM -25.6813 156.1246 237° Southwest 413 475 36,000  Level Aus ATC (RADAR)
03:57AM -25.7308 156.0449 235° Southwest 414 476 36,000  Level Aus ATC (RADAR)
03:57AM -25.7807 155.9917 224° Southwest 419 482 36,000  Level Aus ATC (RADAR)
03:58AM -25.8463 155.9257 222° Southwest 421 484 36,000  Level Aus ATC (RADAR)
03:58AM -25.8814 155.8880 224° Southwest 420 483 36,000  Level Aus ATC (RADAR)
03:59AM -25.9306 155.8354 224° Southwest 418 481 36,000  Level Aus ATC (RADAR)
04:00AM -26.0034 155.7534 225° Southwest 401 461 36,000  Level Aus ATC (RADAR)
04:00AM -26.0362 155.7172 225° Southwest 397 457 36,000  Level Aus ATC (RADAR)
04:01AM -26.0829 155.6676 224° Southwest 395 455 36,000  Level Aus ATC (RADAR)
04:02AM -26.1419 155.6029 225° Southwest 395 455 36,000  Level Aus ATC (RADAR)
04:02AM -26.1871 155.5519 225° Southwest 394 453 36,000  Level Aus ATC (RADAR)
04:03AM -26.2329 155.5020 224° Southwest 392 451 36,000  Level Aus ATC (RADAR)
04:03AM -26.2722 155.4596 224° Southwest 392 451 36,000 -120 Level Aus ATC (RADAR)
04:04AM -26.3174 155.4090 225° Southwest 393 452 35,900  Descending Aus ATC (RADAR)
04:05AM -26.4016 155.3149 225° Southwest 394 453 36,000 60 Climbing Aus ATC (RADAR)
04:05AM -26.4344 155.2791 224° Southwest 395 455 36,000  Level Aus ATC (RADAR)
04:06AM -26.4669 155.2431 225° Southwest 394 453 36,000  Level Aus ATC (RADAR)
04:06AM -26.5123 155.1922 225° Southwest 394 453 36,000  Level Aus ATC (RADAR)
04:07AM -26.5647 155.1344 225° Southwest 396 456 36,000  Level Aus ATC (RADAR)
04:08AM -26.6109 155.0835 225° Southwest 398 458 36,000  Level Aus ATC (RADAR)
04:08AM -26.6571 155.0329 224° Southwest 399 459 36,000 -120 Level Aus ATC (RADAR)
04:09AM -26.7159 154.9669 225° Southwest 398 458 35,900 -120 Descending Aus ATC (RADAR)
04:10AM -26.7750 154.9010 225° Southwest 399 459 35,900 60 Level Aus ATC (RADAR)
04:10AM -26.8076 154.8646 225° Southwest 397 457 36,000  Climbing Aus ATC (RADAR)
04:10AM -26.8403 154.8279 225° Southwest 399 459 35,900 -1,140 Descending Aus ATC (RADAR)
04:11AM -26.8864 154.7766 225° Southwest 401 461 34,900 -1,980 Descending Aus ATC (RADAR)
04:12AM -26.9450 154.7101 225° Southwest 400 460 33,300 -1,980 Descending Aus ATC (RADAR)
04:12AM -26.9890 154.6592 226° Southwest 391 450 32,300 -1,920 Descending Aus ATC (RADAR)
04:13AM -27.0331 154.6105 225° Southwest 382 440 31,100 -2,040 Descending Aus ATC (RADAR)
04:13AM -27.0706 154.5687 225° Southwest 380 437 30,100 -1,980 Descending Aus ATC (RADAR)
04:13AM -27.0710 154.5680 226° Southwest 379 436 30,100 -2,280 Level FlightAware
04:14AM -27.1136 154.5195 226° Southwest 381 438 28,800 -2,220 Descending Aus ATC (RADAR)
04:14AM -27.1190 154.5140 225° Southwest 379 436 28,700 -1,920 Descending FlightAware
04:15AM -27.1520 154.4770 225° Southwest 375 432 27,800 -1,800 Descending FlightAware
04:15AM -27.1924 154.4301 225° Southwest 367 422 26,900  Descending Aus ATC (RADAR)
04:15AM -27.2030 154.4190 225° Southwest 375 432 27,800 960 Climbing FlightAware
04:16AM -27.2430 154.3750 224° Southwest 375 432 27,800 -2,760 Level FlightAware
04:17AM -27.3084 154.2995 224° Southwest 350 403 24,000  Descending Aus ATC (RADAR)
04:17AM -27.2940 154.3170 224° Southwest 375 432 27,800 -1,200 Climbing FlightAware
04:17AM -27.3480 154.2548 224° Southwest 345 397 23,300  Descending Aus ATC (RADAR)
04:17AM -27.3320 154.2750 224° Southwest 375 432 27,800 -540 Climbing FlightAware
04:18AM -27.3846 154.2132 224° Southwest 321 369 23,000  Descending Aus ATC (RADAR)
04:18AM -27.3690 154.2330 224° Southwest 375 432 27,800 -1,140 Climbing FlightAware
04:18AM -27.4050 154.1910 226° Southwest 22,500 -5,760 Descending FlightAware
04:19AM -27.4544 154.1334 226° Southwest 304 350 21,700 -960 Descending Aus ATC (RADAR)
04:20AM -27.5089 154.0726 225° Southwest 301 346 21,000 -780 Descending Aus ATC (RADAR)
04:20AM -27.5322 154.0436 228° Southwest 298 343 20,700 -780 Descending Aus ATC (RADAR)
04:21AM -27.5310 153.9970 273° West 298 343 20,300 -900 Descending FlightAware
04:21AM -27.5296 153.9898 273° West 284 327 20,200 -660 Descending Aus ATC (RADAR)
04:22AM -27.4829 153.9491 273° West 284 327 19,800 -480 Descending Aus ATC (RADAR)
04:22AM -27.4770 153.9490 273° West 234 269 19,800 -720 Level FlightAware
04:22AM -27.4579 153.9517 North 300 345 19,600 -660 Descending FlightAware ADS-B
04:23AM -27.4097 154.0010 North 310 357 19,200 -600 Descending Aus ATC (RADAR)
04:23AM -27.3845 154.0410 55° Northeast 312 359 18,900 -360 Descending Aus ATC (RADAR)
04:23AM -27.3813 154.0464 55° Northeast 311 358 19,000 -420 Climbing FlightAware ADS-B
04:24AM -27.3593 154.0851 57° Northeast 306 352 18,700 -540 Descending FlightAware ADS-B
04:24AM -27.3573 154.0930 74° East 310 357 18,700 -540 Level FlightAware ADS-B
04:25AM -27.3638 154.1427 74° East 297 342 18,400 -180 Descending Aus ATC (RADAR)
04:25AM -27.3540 154.1490 74° East 310 357 18,600  Climbing FlightAware
04:25AM -27.3760 154.1880 122° Southeast 309 356 18,400 -960 Descending FlightAware
04:26AM -27.4628 154.1405 122° Southeast 325 374 17,600  Descending Aus ATC (RADAR)
04:26AM -27.3790 154.2530 122° Southeast 309 356 18,400 660 Climbing FlightAware
04:27AM -27.3830 154.3350 93° East 309 356 18,400  Level FlightAware
04:27AM -27.3850 154.3690 94° East 309 356 18,400  Level FlightAware
04:28AM -27.3880 154.4350 93° East 309 356 18,400  Level FlightAware
04:29AM -27.3890 154.4680 93° East 309 356 18,400 -7,860 Level FlightAware
04:29AM -27.4529 153.8623 93° East 289 333 13,700 -7,200 Descending Aus ATC (RADAR)
04:29AM -27.4493 153.8093 93° East 288 331 12,800 -1,500 Descending Aus ATC (RADAR)
04:30AM -27.4446 153.7413 274° West 286 329 11,700 -1,440 Descending Aus ATC (RADAR)
04:31AM -27.4409 153.6900 275° West 279 321 10,900 -1,500 Descending Aus ATC (RADAR)
04:31AM -27.4375 153.6390 274° West 278 320 10,000 1,920 Descending Aus ATC (RADAR)
04:32AM -27.4390 153.6410 274° West 293 337 12,500 -1,500 Climbing FlightAware
04:32AM -27.4307 153.5458 274° West 272 313 8,400 -4,140 Descending Aus ATC (RADAR)
04:33AM -27.4300 153.5340 274° West 339 390 8,300 -840 Descending FlightAware
04:33AM -27.4290 153.5230 276° West 274 315 8,100 -900 Descending FlightAware
04:33AM -27.4450 153.4680 252° West 283 326 7,500 -960 Descending FlightAware
04:34AM -27.4610 153.4320 252° West 283 326 7,100 -1,200 Descending FlightAware
04:34AM -27.4707 153.4093 252° West 289 333 6,800 -900 Descending Aus ATC (RADAR)
04:34AM -27.4860 153.3750 244° Southwest 289 333 6,500 -600 Descending FlightAware
04:35AM -27.5110 153.3190 243° Southwest 277 319 6,100 -600 Descending FlightAware
04:36AM -27.5340 153.2880 230° Southwest 265 305 5,800 -540 Descending FlightAware
04:36AM -27.5730 153.2500 221° Southwest 258 297 5,500 -780 Descending FlightAware
04:37AM -27.5900 153.2220 236° Southwest 256 295 5,000 -900 Descending FlightAware
04:37AM -27.6110 153.1840 238° Southwest 248 285 4,600 -540 Descending FlightAware
04:38AM -27.6330 153.1440 238° Southwest 232 267 4,400 -360 Descending FlightAware
04:38AM -27.6420 153.1280 238° Southwest 233 268 4,300 -180 Descending FlightAware
04:39AM -27.6560 153.1030 238° Southwest 233 268 4,300 -540 Level FlightAware
04:39AM -27.6631 153.0894 238° Southwest 237 273 4,000 -480 Descending Aus ATC (RADAR)
04:39AM -27.6712 153.0496 238° Southwest 233 268 4,000  Level Aus ATC (RADAR)
04:40AM -27.6539 153.0180 302° West 201 231 4,000  Level Aus ATC (RADAR)
04:41AM -27.6077 153.0092 350° North 190 219 4,000 60 Level Aus ATC (RADAR)
04:41AM -27.6000 153.0090 North 152 175 4,100  Climbing FlightAware
04:41AM -27.5868 153.0118 North 181 208 4,000 -1,020 Descending Aus ATC (RADAR)
04:42AM -27.5597 153.0281 North 185 213 3,300 -1,080 Descending Aus ATC (RADAR)
04:43AM -27.5305 153.0448 27° Northeast 176 203 2,700 -900 Descending Aus ATC (RADAR)
04:43AM -27.5066 153.0587 27° Northeast 167 192 2,200 -780 Descending Aus ATC (RADAR)
04:44AM -27.4843 153.0715 27° Northeast 154 177 1,800 -780 Descending Aus ATC (RADAR)
04:44AM -27.4678 153.0807 26° Northeast 136 157 1,400 -780 Descending Aus ATC (RADAR)
04:45AM -27.4480 153.0923 27° Northeast 138 159 1,000 -780 Descending Aus ATC (RADAR)
04:46AM -27.4155 153.1111 27° Northeast 144 166 300 -780 Descending Aus ATC (RADAR)
04:46AM -27.4030 153.1173 24° Northeast 146 168 100 -600 Descending Aus ATC (RADAR)